Terminal Aerodrome Forecast
Issued by NWS

Current Version | Previous Version | Graphics & Text | Print | Product List | Glossary On
Versions: 1 2 3 4 5 6 7 8 9 10 11 12 13 14 15 16 17 18 19 20 21 22 23
000
FTUS41 KILN 181750
TAFLCK
TAF
KLCK 181750Z 1818/1918 18006KT P6SM SCT030 BKN250
     FM182200 15007KT P6SM BKN250
     FM190600 14007KT P6SM BKN120 WS020/18040KT
     FM191000 17008KT P6SM VCSH BKN022 WS020/21045KT
     FM191200 17009KT 2SM SHRA OVC012 WS020/21045KT
     FM191400 19010KT 2SM SHRA OVC008 WS020/21045KT
     FM191700 20012KT P6SM VCSH OVC012=

USA.gov is the U.S. government's official web portal to all federal, state and local government web resources and services.